sensor_id;sensor_type;location;lat;lon;timestamp;pressure;altitude;pressure_sealevel;temperature;humidity
56721;BME280;53183;47.412;18.884;2023-04-04T00:00:35;99463.12;;;1.19;53.44
56721;BME280;53183;47.412;18.884;2023-04-04T00:03:03;99461.44;;;1.14;53.61
56721;BME280;53183;47.412;18.884;2023-04-04T00:05:30;99457.12;;;1.13;53.50
56721;BME280;53183;47.412;18.884;2023-04-04T00:07:57;99462.25;;;1.18;53.40
56721;BME280;53183;47.412;18.884;2023-04-04T00:10:24;99464.97;;;1.12;53.92
56721;BME280;53183;47.412;18.884;2023-04-04T00:12:52;99463.16;;;1.17;53.51
56721;BME280;53183;47.412;18.884;2023-04-04T00:15:19;99464.31;;;0.99;55.07
56721;BME280;53183;47.412;18.884;2023-04-04T00:17:46;99468.78;;;0.89;55.10
56721;BME280;53183;47.412;18.884;2023-04-04T00:20:14;99465.38;;;0.86;55.12
56721;BME280;53183;47.412;18.884;2023-04-04T00:22:41;99464.53;;;0.84;55.47
56721;BME280;53183;47.412;18.884;2023-04-04T00:25:09;99473.22;;;0.81;55.72
56721;BME280;53183;47.412;18.884;2023-04-04T00:27:36;99471.56;;;0.76;55.92
56721;BME280;53183;47.412;18.884;2023-04-04T00:30:04;99465.56;;;0.72;56.07
56721;BME280;53183;47.412;18.884;2023-04-04T00:32:32;99469.97;;;0.67;56.69
56721;BME280;53183;47.412;18.884;2023-04-04T00:34:59;99471.69;;;0.68;56.55
56721;BME280;53183;47.412;18.884;2023-04-04T00:37:26;99470.03;;;0.62;57.11
56721;BME280;53183;47.412;18.884;2023-04-04T00:39:54;99476.97;;;0.63;56.97
56721;BME280;53183;47.412;18.884;2023-04-04T00:42:21;99477.97;;;0.53;57.23
56721;BME280;53183;47.412;18.884;2023-04-04T00:44:50;99472.81;;;0.50;57.48
56721;BME280;53183;47.412;18.884;2023-04-04T00:47:21;99478.06;;;0.45;57.58
56721;BME280;53183;47.412;18.884;2023-04-04T00:49:48;99478.16;;;0.38;57.60
56721;BME280;53183;47.412;18.884;2023-04-04T00:52:15;99472.16;;;0.34;58.09
56721;BME280;53183;47.412;18.884;2023-04-04T00:54:43;99474.81;;;0.30;58.38
56721;BME280;53183;47.412;18.884;2023-04-04T00:57:10;99470.56;;;0.21;59.38
56721;BME280;53183;47.412;18.884;2023-04-04T00:59:38;99468.09;;;0.12;59.47
56721;BME280;53183;47.412;18.884;2023-04-04T01:02:05;99466.44;;;0.03;60.10
56721;BME280;53183;47.412;18.884;2023-04-04T01:04:34;99456.19;;;-0.06;60.41
56721;BME280;53183;47.412;18.884;2023-04-04T01:07:02;99456.28;;;-0.15;60.97
56721;BME280;53183;47.412;18.884;2023-04-04T01:09:31;99444.25;;;-0.24;61.64
56721;BME280;53183;47.412;18.884;2023-04-04T01:11:59;99444.31;;;-0.30;62.24
56721;BME280;53183;47.412;18.884;2023-04-04T01:14:26;99440.06;;;-0.37;62.12
56721;BME280;53183;47.412;18.884;2023-04-04T01:16:54;99439.22;;;-0.41;62.31
56721;BME280;53183;47.412;18.884;2023-04-04T01:19:31;99436.78;;;-0.55;63.69
56721;BME280;53183;47.412;18.884;2023-04-04T01:22:00;99424.53;;;-0.43;62.45
56721;BME280;53183;47.412;18.884;2023-04-04T01:24:32;99425.50;;;-0.52;63.30
56721;BME280;53183;47.412;18.884;2023-04-04T01:27:01;99419.63;;;-0.71;64.90
56721;BME280;53183;47.412;18.884;2023-04-04T01:29:28;99418.62;;;-0.59;63.53
56721;BME280;53183;47.412;18.884;2023-04-04T01:32:03;99408.22;;;-0.56;63.46
56721;BME280;53183;47.412;18.884;2023-04-04T01:37:35;99398.72;;;-0.56;62.87
56721;BME280;53183;47.412;18.884;2023-04-04T01:40:15;99394.41;;;-0.55;62.63
56721;BME280;53183;47.412;18.884;2023-04-04T01:42:44;99393.50;;;-0.54;62.93
56721;BME280;53183;47.412;18.884;2023-04-04T01:45:12;99392.53;;;-0.42;61.74
56721;BME280;53183;47.412;18.884;2023-04-04T01:47:41;99382.94;;;-0.36;61.45
56721;BME280;53183;47.412;18.884;2023-04-04T01:50:11;99382.13;;;-0.39;61.45
56721;BME280;53183;47.412;18.884;2023-04-04T01:52:39;99380.25;;;-0.28;61.08
56721;BME280;53183;47.412;18.884;2023-04-04T01:55:06;99381.09;;;-0.28;61.22
56721;BME280;53183;47.412;18.884;2023-04-04T01:57:34;99373.34;;;-0.29;61.47
56721;BME280;53183;47.412;18.884;2023-04-04T02:00:02;99368.22;;;-0.37;62.25
56721;BME280;53183;47.412;18.884;2023-04-04T02:02:42;99358.84;;;-0.49;62.67
56721;BME280;53183;47.412;18.884;2023-04-04T02:05:09;99351.09;;;-0.53;63.62
56721;BME280;53183;47.412;18.884;2023-04-04T02:07:37;99354.50;;;-0.48;62.35
56721;BME280;53183;47.412;18.884;2023-04-04T02:10:08;99350.00;;;-0.34;60.69
56721;BME280;53183;47.412;18.884;2023-04-04T02:12:35;99341.34;;;-0.33;60.53
56721;BME280;53183;47.412;18.884;2023-04-04T02:15:03;99340.50;;;-0.35;61.49
56721;BME280;53183;47.412;18.884;2023-04-04T02:17:31;99338.69;;;-0.30;60.46
56721;BME280;53183;47.412;18.884;2023-04-04T02:19:58;99326.75;;;-0.41;60.52
56721;BME280;53183;47.412;18.884;2023-04-04T02:22:26;99329.22;;;-0.34;60.47
56721;BME280;53183;47.412;18.884;2023-04-04T02:24:53;99335.25;;;-0.30;60.26
56721;BME280;53183;47.412;18.884;2023-04-04T02:27:20;99328.41;;;-0.36;61.12
56721;BME280;53183;47.412;18.884;2023-04-04T02:29:48;99325.78;;;-0.33;60.63
56721;BME280;53183;47.412;18.884;2023-04-04T02:32:15;99326.56;;;-0.26;60.37
56721;BME280;53183;47.412;18.884;2023-04-04T02:34:42;99318.75;;;-0.25;60.09
56721;BME280;53183;47.412;18.884;2023-04-04T02:37:10;99318.81;;;-0.29;60.58
56721;BME280;53183;47.412;18.884;2023-04-04T02:39:37;99312.88;;;-0.39;60.74
56721;BME280;53183;47.412;18.884;2023-04-04T02:42:04;99313.84;;;-0.48;61.49
56721;BME280;53183;47.412;18.884;2023-04-04T02:44:31;99316.47;;;-0.49;61.58
56721;BME280;53183;47.412;18.884;2023-04-04T02:46:59;99317.28;;;-0.47;61.55
56721;BME280;53183;47.412;18.884;2023-04-04T02:49:27;99315.56;;;-0.50;61.54
56721;BME280;53183;47.412;18.884;2023-04-04T02:51:56;99320.84;;;-0.53;61.78
56721;BME280;53183;47.412;18.884;2023-04-04T02:54:25;99327.78;;;-0.58;62.10
56721;BME280;53183;47.412;18.884;2023-04-04T02:56:52;99330.44;;;-0.61;62.18
56721;BME280;53183;47.412;18.884;2023-04-04T02:59:20;99328.66;;;-0.57;62.32
56721;BME280;53183;47.412;18.884;2023-04-04T03:01:47;99325.31;;;-0.70;62.45
56721;BME280;53183;47.412;18.884;2023-04-04T03:04:14;99327.94;;;-0.73;62.48
56721;BME280;53183;47.412;18.884;2023-04-04T03:06:42;99335.75;;;-0.72;62.42
56721;BME280;53183;47.412;18.884;2023-04-04T03:09:09;99335.75;;;-0.73;62.35
56721;BME280;53183;47.412;18.884;2023-04-04T03:11:37;99345.34;;;-0.81;63.67
56721;BME280;53183;47.412;18.884;2023-04-04T03:14:04;99345.28;;;-0.77;62.89
56721;BME280;53183;47.412;18.884;2023-04-04T03:16:31;99347.06;;;-0.80;63.34
56721;BME280;53183;47.412;18.884;2023-04-04T03:18:58;99347.88;;;-0.75;62.96
56721;BME280;53183;47.412;18.884;2023-04-04T03:21:26;99348.00;;;-0.89;63.11
56721;BME280;53183;47.412;18.884;2023-04-04T03:23:54;99358.47;;;-0.95;64.47
56721;BME280;53183;47.412;18.884;2023-04-04T03:26:23;99356.62;;;-0.84;63.65
56721;BME280;53183;47.412;18.884;2023-04-04T03:28:51;99350.59;;;-0.89;64.31
56721;BME280;53183;47.412;18.884;2023-04-04T03:31:19;99352.41;;;-0.94;64.09
56721;BME280;53183;47.412;18.884;2023-04-04T03:33:46;99346.31;;;-0.91;64.22
56721;BME280;53183;47.412;18.884;2023-04-04T03:36:14;99352.41;;;-0.94;63.97
56721;BME280;53183;47.412;18.884;2023-04-04T03:38:41;99348.09;;;-0.97;64.36
56721;BME280;53183;47.412;18.884;2023-04-04T03:41:08;99359.31;;;-0.96;64.31
56721;BME280;53183;47.412;18.884;2023-04-04T03:43:36;99353.34;;;-1.04;64.76
56721;BME280;53183;47.412;18.884;2023-04-04T03:46:04;99356.88;;;-1.11;65.35
56721;BME280;53183;47.412;18.884;2023-04-04T03:48:32;99365.44;;;-1.02;64.66
56721;BME280;53183;47.412;18.884;2023-04-04T03:51:02;99365.44;;;-1.02;64.69
56721;BME280;53183;47.412;18.884;2023-04-04T03:53:30;99358.50;;;-1.01;66.12
56721;BME280;53183;47.412;18.884;2023-04-04T03:55:58;99366.28;;;-1.00;64.50
56721;BME280;53183;47.412;18.884;2023-04-04T03:58:27;99356.84;;;-1.05;65.07
56721;BME280;53183;47.412;18.884;2023-04-04T04:00:57;99357.72;;;-1.09;64.89
56721;BME280;53183;47.412;18.884;2023-04-04T04:03:39;99362.75;;;-0.92;63.77
56721;BME280;53183;47.412;18.884;2023-04-04T04:06:18;99353.16;;;-0.86;63.74
56721;BME280;53183;47.412;18.884;2023-04-04T04:08:59;99353.09;;;-0.80;63.37
56721;BME280;53183;47.412;18.884;2023-04-04T04:11:29;99350.47;;;-0.77;63.08
56721;BME280;53183;47.412;18.884;2023-04-04T04:14:17;99347.03;;;-0.76;62.97
56721;BME280;53183;47.412;18.884;2023-04-04T04:16:56;99347.16;;;-0.88;63.82
56721;BME280;53183;47.412;18.884;2023-04-04T04:19:37;99350.66;;;-0.92;64.72
56721;BME280;53183;47.412;18.884;2023-04-04T04:22:12;99344.47;;;-0.80;63.14
56721;BME280;53183;47.412;18.884;2023-04-04T04:24:54;99342.69;;;-0.75;62.83
56721;BME280;53183;47.412;18.884;2023-04-04T04:27:26;99345.22;;;-0.69;62.48
56721;BME280;53183;47.412;18.884;2023-04-04T04:30:09;99337.53;;;-0.80;63.13
56721;BME280;53183;47.412;18.884;2023-04-04T04:32:48;99339.19;;;-0.73;63.22
56721;BME280;53183;47.412;18.884;2023-04-04T04:35:35;99330.50;;;-0.65;63.50
56721;BME280;53183;47.412;18.884;2023-04-04T04:38:13;99333.84;;;-0.57;62.55
56721;BME280;53183;47.412;18.884;2023-04-04T04:41:13;99337.31;;;-0.58;62.12
56721;BME280;53183;47.412;18.884;2023-04-04T04:43:53;99331.00;;;-0.36;61.32
56721;BME280;53183;47.412;18.884;2023-04-04T04:46:36;99330.87;;;-0.25;60.56
56721;BME280;53183;47.412;18.884;2023-04-04T04:49:35;99327.53;;;-0.35;62.10
56721;BME280;53183;47.412;18.884;2023-04-04T05:02:36;99328.97;;;-0.12;62.48
56721;BME280;53183;47.412;18.884;2023-04-04T05:09:23;99332.13;;;0.11;60.96
56721;BME280;53183;47.412;18.884;2023-04-04T05:16:06;99327.94;;;0.01;61.87
56721;BME280;53183;47.412;18.884;2023-04-04T05:19:20;99326.78;;;0.20;62.25
56721;BME280;53183;47.412;18.884;2023-04-04T05:25:49;99337.78;;;0.38;62.38
56721;BME280;53183;47.412;18.884;2023-04-04T05:28:18;99336.94;;;0.36;62.32
56721;BME280;53183;47.412;18.884;2023-04-04T05:30:47;99331.69;;;0.40;61.94
56721;BME280;53183;47.412;18.884;2023-04-04T05:33:15;99340.13;;;0.55;61.40
56721;BME280;53183;47.412;18.884;2023-04-04T05:35:43;99342.50;;;0.68;60.70
56721;BME280;53183;47.412;18.884;2023-04-04T05:38:12;99336.66;;;1.05;59.76
56721;BME280;53183;47.412;18.884;2023-04-04T05:40:40;99334.47;;;1.32;58.79
56721;BME280;53183;47.412;18.884;2023-04-04T05:43:08;99337.87;;;1.34;58.49
56721;BME280;53183;47.412;18.884;2023-04-04T05:45:36;99333.44;;;1.40;57.64
56721;BME280;53183;47.412;18.884;2023-04-04T05:48:07;99338.84;;;1.75;55.50
56721;BME280;53183;47.412;18.884;2023-04-04T05:50:36;99351.66;;;1.84;53.85
56721;BME280;53183;47.412;18.884;2023-04-04T05:53:04;99348.13;;;1.88;54.00
56721;BME280;53183;47.412;18.884;2023-04-04T05:55:31;99347.88;;;1.99;53.41
56721;BME280;53183;47.412;18.884;2023-04-04T05:57:59;99345.03;;;2.11;54.07
56721;BME280;53183;47.412;18.884;2023-04-04T06:00:29;99353.06;;;2.39;53.19
56721;BME280;53183;47.412;18.884;2023-04-04T06:02:58;99347.59;;;2.51;52.57
56721;BME280;53183;47.412;18.884;2023-04-04T06:05:26;99345.63;;;2.22;52.24
56721;BME280;53183;47.412;18.884;2023-04-04T06:07:53;99344.59;;;2.31;52.67
56721;BME280;53183;47.412;18.884;2023-04-04T06:10:20;99350.53;;;2.38;53.10
56721;BME280;53183;47.412;18.884;2023-04-04T06:12:48;99354.75;;;2.79;51.74
56721;BME280;53183;47.412;18.884;2023-04-04T06:15:16;99346.06;;;2.78;51.54
56721;BME280;53183;47.412;18.884;2023-04-04T06:17:43;99340.47;;;3.59;49.38
56721;BME280;53183;47.412;18.884;2023-04-04T06:20:11;99342.97;;;3.95;49.30
56721;BME280;53183;47.412;18.884;2023-04-04T06:22:39;99348.19;;;4.23;47.36
56721;BME280;53183;47.412;18.884;2023-04-04T06:25:07;99345.22;;;4.35;47.49
56721;BME280;53183;47.412;18.884;2023-04-04T06:27:37;99349.38;;;4.96;45.61
56721;BME280;53183;47.412;18.884;2023-04-04T06:30:05;99349.69;;;5.63;44.23
56721;BME280;53183;47.412;18.884;2023-04-04T06:32:35;99341.44;;;5.74;43.10
56721;BME280;53183;47.412;18.884;2023-04-04T06:35:03;99331.19;;;5.91;42.96
56721;BME280;53183;47.412;18.884;2023-04-04T06:37:32;99313.13;;;6.07;41.64
56721;BME280;53183;47.412;18.884;2023-04-04T06:40:00;99306.38;;;5.53;42.80
56721;BME280;53183;47.412;18.884;2023-04-04T06:42:28;99302.78;;;5.55;43.11
56721;BME280;53183;47.412;18.884;2023-04-04T06:45:00;99311.34;;;5.35;43.34
56721;BME280;53183;47.412;18.884;2023-04-04T06:47:28;99314.44;;;5.23;44.41
56721;BME280;53183;47.412;18.884;2023-04-04T06:49:55;99305.69;;;5.71;44.08
56721;BME280;53183;47.412;18.884;2023-04-04T06:52:23;99304.31;;;5.37;43.74
56721;BME280;53183;47.412;18.884;2023-04-04T06:54:54;99307.06;;;5.58;43.33
56721;BME280;53183;47.412;18.884;2023-04-04T06:57:22;99323.94;;;4.99;44.97
56721;BME280;53183;47.412;18.884;2023-04-04T06:59:49;99322.34;;;4.95;45.94
56721;BME280;53183;47.412;18.884;2023-04-04T07:02:16;99323.47;;;4.88;45.23
56721;BME280;53183;47.412;18.884;2023-04-04T07:04:43;99322.50;;;5.17;45.38
56721;BME280;53183;47.412;18.884;2023-04-04T07:07:11;99321.84;;;5.10;44.57
56721;BME280;53183;47.412;18.884;2023-04-04T07:09:38;99325.91;;;4.92;44.58
56721;BME280;53183;47.412;18.884;2023-04-04T07:12:05;99339.22;;;4.86;45.50
56721;BME280;53183;47.412;18.884;2023-04-04T07:14:33;99340.72;;;4.93;45.91
56721;BME280;53183;47.412;18.884;2023-04-04T07:17:00;99342.06;;;5.07;46.46
56721;BME280;53183;47.412;18.884;2023-04-04T07:19:39;99342.81;;;4.84;46.26
56721;BME280;53183;47.412;18.884;2023-04-04T07:22:07;99333.97;;;4.86;46.25
56721;BME280;53183;47.412;18.884;2023-04-04T07:24:34;99348.28;;;5.03;46.00
56721;BME280;53183;47.412;18.884;2023-04-04T07:27:02;99340.63;;;4.70;46.96
56721;BME280;53183;47.412;18.884;2023-04-04T07:29:29;99330.56;;;4.58;46.93
56721;BME280;53183;47.412;18.884;2023-04-04T07:31:57;99336.81;;;5.07;46.29
56721;BME280;53183;47.412;18.884;2023-04-04T07:34:43;99335.47;;;5.20;45.01
56721;BME280;53183;47.412;18.884;2023-04-04T07:37:17;99332.69;;;5.25;46.32
56721;BME280;53183;47.412;18.884;2023-04-04T07:40:05;99333.53;;;5.25;46.27
56721;BME280;53183;47.412;18.884;2023-04-04T07:42:53;99336.06;;;5.28;46.52
56721;BME280;53183;47.412;18.884;2023-04-04T07:45:20;99345.59;;;5.31;46.23
56721;BME280;53183;47.412;18.884;2023-04-04T07:47:50;99332.81;;;5.47;46.54
56721;BME280;53183;47.412;18.884;2023-04-04T07:50:33;99327.78;;;5.40;47.11
56721;BME280;53183;47.412;18.884;2023-04-04T07:53:15;99346.06;;;5.91;46.08
56721;BME280;53183;47.412;18.884;2023-04-04T07:55:43;99346.78;;;6.63;44.68
56721;BME280;53183;47.412;18.884;2023-04-04T07:58:10;99348.88;;;6.77;43.75
56721;BME280;53183;47.412;18.884;2023-04-04T08:00:55;99342.03;;;6.95;42.38
56721;BME280;53183;47.412;18.884;2023-04-04T08:03:41;99340.09;;;6.78;44.07
56721;BME280;53183;47.412;18.884;2023-04-04T08:06:27;99336.13;;;6.46;43.33
56721;BME280;53183;47.412;18.884;2023-04-04T08:09:06;99338.00;;;6.42;42.56
56721;BME280;53183;47.412;18.884;2023-04-04T08:11:37;99343.31;;;6.85;43.15
56721;BME280;53183;47.412;18.884;2023-04-04T08:14:04;99340.88;;;7.00;42.15
56721;BME280;53183;47.412;18.884;2023-04-04T08:16:32;99347.00;;;6.58;42.50
56721;BME280;53183;47.412;18.884;2023-04-04T08:18:59;99347.03;;;6.57;43.55
56721;BME280;53183;47.412;18.884;2023-04-04T08:21:27;99350.00;;;6.71;42.87
56721;BME280;53183;47.412;18.884;2023-04-04T08:23:54;99342.09;;;6.49;43.30
56721;BME280;53183;47.412;18.884;2023-04-04T08:26:21;99346.56;;;6.69;42.57
56721;BME280;53183;47.412;18.884;2023-04-04T08:28:49;99344.19;;;7.05;42.39
56721;BME280;53183;47.412;18.884;2023-04-04T08:31:17;99335.12;;;7.33;42.20
56721;BME280;53183;47.412;18.884;2023-04-04T08:33:44;99335.72;;;7.60;42.08
56721;BME280;53183;47.412;18.884;2023-04-04T08:36:14;99342.38;;;7.48;40.83
56721;BME280;53183;47.412;18.884;2023-04-04T08:38:42;99342.97;;;7.14;41.87
56721;BME280;53183;47.412;18.884;2023-04-04T08:41:10;99340.63;;;7.07;42.42
56721;BME280;53183;47.412;18.884;2023-04-04T08:43:39;99331.91;;;7.06;41.98
56721;BME280;53183;47.412;18.884;2023-04-04T08:46:10;99331.31;;;7.20;43.15
56721;BME280;53183;47.412;18.884;2023-04-04T08:48:41;99324.28;;;7.20;41.72
56721;BME280;53183;47.412;18.884;2023-04-04T08:51:10;99326.34;;;7.34;40.51
56721;BME280;53183;47.412;18.884;2023-04-04T08:53:40;99320.75;;;7.42;40.19
56721;BME280;53183;47.412;18.884;2023-04-04T08:56:07;99323.78;;;7.12;39.49
56721;BME280;53183;47.412;18.884;2023-04-04T08:58:35;99312.72;;;7.04;40.50
56721;BME280;53183;47.412;18.884;2023-04-04T09:01:05;99334.94;;;7.38;39.79
56721;BME280;53183;47.412;18.884;2023-04-04T09:03:33;99311.81;;;7.05;38.68
56721;BME280;53183;47.412;18.884;2023-04-04T09:06:03;99304.91;;;7.23;39.09
56721;BME280;53183;47.412;18.884;2023-04-04T09:08:31;99304.78;;;7.26;40.31
56721;BME280;53183;47.412;18.884;2023-04-04T09:11:01;99302.53;;;7.17;40.48
56721;BME280;53183;47.412;18.884;2023-04-04T09:13:38;99294.06;;;7.51;40.24
56721;BME280;53183;47.412;18.884;2023-04-04T09:16:16;99310.59;;;7.73;40.15
56721;BME280;53183;47.412;18.884;2023-04-04T09:18:44;99310.09;;;8.03;39.24
56721;BME280;53183;47.412;18.884;2023-04-04T09:21:15;99301.41;;;8.20;38.09
56721;BME280;53183;47.412;18.884;2023-04-04T09:23:45;99321.25;;;8.08;37.44
56721;BME280;53183;47.412;18.884;2023-04-04T09:26:12;99306.47;;;8.06;38.11
56721;BME280;53183;47.412;18.884;2023-04-04T09:28:39;99298.19;;;7.75;40.00
56721;BME280;53183;47.412;18.884;2023-04-04T09:31:07;99299.13;;;7.74;39.76
56721;BME280;53183;47.412;18.884;2023-04-04T09:33:37;99313.03;;;7.97;38.02
56721;BME280;53183;47.412;18.884;2023-04-04T09:36:06;99300.19;;;7.70;37.39
56721;BME280;53183;47.412;18.884;2023-04-04T09:38:38;99305.19;;;7.77;36.80
56721;BME280;53183;47.412;18.884;2023-04-04T09:41:07;99296.69;;;7.51;37.74
56721;BME280;53183;47.412;18.884;2023-04-04T09:43:36;99304.00;;;7.63;37.69
56721;BME280;53183;47.412;18.884;2023-04-04T09:46:05;99297.28;;;7.77;38.66
56721;BME280;53183;47.412;18.884;2023-04-04T09:48:34;99295.47;;;7.58;37.08
56721;BME280;53183;47.412;18.884;2023-04-04T09:51:05;99288.25;;;7.82;37.95
56721;BME280;53183;47.412;18.884;2023-04-04T09:53:35;99289.09;;;8.02;36.90
56721;BME280;53183;47.412;18.884;2023-04-04T09:56:05;99288.41;;;7.98;35.85
56721;BME280;53183;47.412;18.884;2023-04-04T09:58:32;99303.78;;;8.07;37.21
56721;BME280;53183;47.412;18.884;2023-04-04T10:01:08;99286.66;;;8.54;35.95
56721;BME280;53183;47.412;18.884;2023-04-04T10:03:38;99288.09;;;8.78;35.14
56721;BME280;53183;47.412;18.884;2023-04-04T10:06:06;99289.88;;;9.12;34.83
56721;BME280;53183;47.412;18.884;2023-04-04T10:08:38;99300.19;;;9.17;35.79
56721;BME280;53183;47.412;18.884;2023-04-04T10:11:06;99298.34;;;9.02;36.28
56721;BME280;53183;47.412;18.884;2023-04-04T10:13:39;99303.12;;;8.93;34.67
56721;BME280;53183;47.412;18.884;2023-04-04T10:16:12;99288.41;;;8.89;35.03
56721;BME280;53183;47.412;18.884;2023-04-04T10:18:40;99284.44;;;8.81;35.55
56721;BME280;53183;47.412;18.884;2023-04-04T10:21:08;99296.22;;;8.56;35.18
56721;BME280;53183;47.412;18.884;2023-04-04T10:23:40;99285.37;;;8.62;34.40
56721;BME280;53183;47.412;18.884;2023-04-04T10:26:07;99278.84;;;8.33;35.22
56721;BME280;53183;47.412;18.884;2023-04-04T10:28:35;99273.25;;;8.58;35.32
56721;BME280;53183;47.412;18.884;2023-04-04T10:33:59;99269.63;;;8.78;35.01
56721;BME280;53183;47.412;18.884;2023-04-04T10:36:37;99272.38;;;8.77;35.12
56721;BME280;53183;47.412;18.884;2023-04-04T10:39:20;99268.78;;;8.78;34.19
56721;BME280;53183;47.412;18.884;2023-04-04T10:41:51;99259.44;;;8.89;34.34
56721;BME280;53183;47.412;18.884;2023-04-04T10:44:38;99266.84;;;8.81;33.66
56721;BME280;53183;47.412;18.884;2023-04-04T10:47:18;99248.56;;;8.78;34.35
56721;BME280;53183;47.412;18.884;2023-04-04T10:49:49;99266.31;;;9.09;34.08
56721;BME280;53183;47.412;18.884;2023-04-04T10:52:21;99268.63;;;8.98;33.68
56721;BME280;53183;47.412;18.884;2023-04-04T10:54:51;99259.88;;;8.98;33.63
56721;BME280;53183;47.412;18.884;2023-04-04T10:57:20;99268.03;;;8.93;33.97
56721;BME280;53183;47.412;18.884;2023-04-04T11:00:06;99259.69;;;9.35;33.67
56721;BME280;53183;47.412;18.884;2023-04-04T11:05:33;99250.06;;;9.83;34.31
56721;BME280;53183;47.412;18.884;2023-04-04T11:08:08;99252.56;;;9.71;32.68
56721;BME280;53183;47.412;18.884;2023-04-04T11:10:39;99261.13;;;9.58;33.19
56721;BME280;53183;47.412;18.884;2023-04-04T11:13:29;99253.94;;;9.45;33.90
56721;BME280;53183;47.412;18.884;2023-04-04T11:16:04;99252.53;;;9.55;32.58
56721;BME280;53183;47.412;18.884;2023-04-04T11:21:19;99241.94;;;10.04;32.82
56721;BME280;53183;47.412;18.884;2023-04-04T11:29:03;99248.28;;;10.00;33.37
56721;BME280;53183;47.412;18.884;2023-04-04T11:31:36;99254.09;;;10.22;33.02
56721;BME280;53183;47.412;18.884;2023-04-04T11:34:09;99240.66;;;10.11;32.49
56721;BME280;53183;47.412;18.884;2023-04-04T11:39:23;99239.37;;;10.34;32.65
56721;BME280;53183;47.412;18.884;2023-04-04T11:44:26;99228.69;;;10.82;32.19
56721;BME280;53183;47.412;18.884;2023-04-04T11:49:33;99225.22;;;10.51;31.74
56721;BME280;53183;47.412;18.884;2023-04-04T11:52:15;99229.06;;;9.98;32.06
56721;BME280;53183;47.412;18.884;2023-04-04T11:54:45;99223.16;;;9.77;32.58
56721;BME280;53183;47.412;18.884;2023-04-04T11:57:14;99226.41;;;9.66;33.50
56721;BME280;53183;47.412;18.884;2023-04-04T11:59:43;99218.94;;;9.74;34.47
56721;BME280;53183;47.412;18.884;2023-04-04T12:02:13;99217.50;;;9.84;33.82
56721;BME280;53183;47.412;18.884;2023-04-04T12:04:41;99218.06;;;9.74;33.55
56721;BME280;53183;47.412;18.884;2023-04-04T12:07:12;99219.28;;;9.35;32.90
56721;BME280;53183;47.412;18.884;2023-04-04T12:09:41;99215.25;;;9.28;34.37
56721;BME280;53183;47.412;18.884;2023-04-04T12:12:12;99222.94;;;9.32;33.61
56721;BME280;53183;47.412;18.884;2023-04-04T12:14:42;99202.78;;;9.31;33.17
56721;BME280;53183;47.412;18.884;2023-04-04T12:17:10;99193.87;;;9.66;32.56
56721;BME280;53183;47.412;18.884;2023-04-04T12:19:38;99190.53;;;10.25;32.24
56721;BME280;53183;47.412;18.884;2023-04-04T12:22:06;99184.94;;;10.62;31.77
56721;BME280;53183;47.412;18.884;2023-04-04T12:24:34;99191.63;;;10.53;33.47
56721;BME280;53183;47.412;18.884;2023-04-04T12:27:02;99181.84;;;10.69;31.26
56721;BME280;53183;47.412;18.884;2023-04-04T12:29:31;99178.22;;;10.56;32.18
56721;BME280;53183;47.412;18.884;2023-04-04T12:32:05;99180.56;;;10.46;32.62
56721;BME280;53183;47.412;18.884;2023-04-04T12:34:34;99185.69;;;10.18;31.76
56721;BME280;53183;47.412;18.884;2023-04-04T12:37:08;99177.69;;;10.03;31.24
56721;BME280;53183;47.412;18.884;2023-04-04T12:39:42;99170.34;;;10.24;31.35
56721;BME280;53183;47.412;18.884;2023-04-04T12:42:12;99173.03;;;10.54;32.47
56721;BME280;53183;47.412;18.884;2023-04-04T12:44:40;99170.00;;;10.46;32.50
56721;BME280;53183;47.412;18.884;2023-04-04T12:47:09;99158.50;;;10.62;32.05
56721;BME280;53183;47.412;18.884;2023-04-04T12:52:06;99163.84;;;10.76;30.97
56721;BME280;53183;47.412;18.884;2023-04-04T12:54:37;99172.00;;;10.57;32.15
56721;BME280;53183;47.412;18.884;2023-04-04T12:57:06;99169.22;;;10.44;32.72
56721;BME280;53183;47.412;18.884;2023-04-04T12:59:35;99160.03;;;10.36;32.17
56721;BME280;53183;47.412;18.884;2023-04-04T13:02:06;99157.19;;;10.69;30.81
56721;BME280;53183;47.412;18.884;2023-04-04T13:04:35;99147.41;;;10.85;30.45
56721;BME280;53183;47.412;18.884;2023-04-04T13:07:04;99153.75;;;10.83;31.28
56721;BME280;53183;47.412;18.884;2023-04-04T13:09:31;99155.66;;;11.23;29.95
56721;BME280;53183;47.412;18.884;2023-04-04T13:12:04;99166.97;;;11.11;29.79
56721;BME280;53183;47.412;18.884;2023-04-04T13:15:00;99155.63;;;10.66;30.14
56721;BME280;53183;47.412;18.884;2023-04-04T13:17:44;99151.78;;;10.86;32.01
56721;BME280;53183;47.412;18.884;2023-04-04T13:20:14;99142.13;;;10.71;30.90
56721;BME280;53183;47.412;18.884;2023-04-04T13:22:42;99139.78;;;10.80;30.06
56721;BME280;53183;47.412;18.884;2023-04-04T13:25:10;99147.06;;;10.91;31.36
56721;BME280;53183;47.412;18.884;2023-04-04T13:27:37;99135.38;;;10.51;31.25
56721;BME280;53183;47.412;18.884;2023-04-04T13:30:05;99139.47;;;10.71;32.20
56721;BME280;53183;47.412;18.884;2023-04-04T13:32:36;99132.50;;;10.70;30.90
56721;BME280;53183;47.412;18.884;2023-04-04T13:35:04;99121.69;;;10.44;31.19
56721;BME280;53183;47.412;18.884;2023-04-04T13:37:32;99132.13;;;10.16;31.66
56721;BME280;53183;47.412;18.884;2023-04-04T13:40:05;99129.69;;;10.43;32.56
56721;BME280;53183;47.412;18.884;2023-04-04T13:42:32;99131.09;;;10.93;30.73
56721;BME280;53183;47.412;18.884;2023-04-04T13:44:59;99133.16;;;11.02;30.82
56721;BME280;53183;47.412;18.884;2023-04-04T13:47:27;99126.25;;;10.85;29.79
56721;BME280;53183;47.412;18.884;2023-04-04T13:49:54;99127.03;;;10.87;30.87
56721;BME280;53183;47.412;18.884;2023-04-04T13:52:22;99134.69;;;11.06;30.00
56721;BME280;53183;47.412;18.884;2023-04-04T13:54:49;99128.09;;;11.13;30.96
56721;BME280;53183;47.412;18.884;2023-04-04T13:57:17;99136.84;;;10.71;31.28
56721;BME280;53183;47.412;18.884;2023-04-04T13:59:44;99133.06;;;10.75;31.04
56721;BME280;53183;47.412;18.884;2023-04-04T14:02:11;99142.41;;;10.95;32.93